createdAt,value
2024-02-29T00:02:01.632Z,100784.28
2024-02-29T00:05:05.062Z,100802.09
2024-02-29T00:08:07.791Z,100811.69
2024-02-29T00:11:11.472Z,100807.66
2024-02-29T00:14:14.145Z,100817.06
2024-02-29T00:17:16.882Z,100814.34
2024-02-29T00:20:19.550Z,100821.28
2024-02-29T00:23:22.327Z,100813.63
2024-02-29T00:26:24.875Z,100805.09
2024-02-29T00:29:29.594Z,100818.50
2024-02-29T00:32:32.163Z,100811.81
2024-02-29T00:35:34.714Z,100815.56
2024-02-29T00:38:38.420Z,100818.78
2024-02-29T00:41:40.945Z,100808.13
2024-02-29T00:44:43.531Z,100788.69
2024-02-29T00:47:46.129Z,100796.41
2024-02-29T00:50:49.040Z,100819.53
2024-02-29T00:53:51.745Z,100782.69
2024-02-29T00:56:54.402Z,100813.75
2024-02-29T00:59:57.030Z,100801.31
2024-02-29T01:02:59.724Z,100796.25
2024-02-29T01:06:02.652Z,100802.19
2024-02-29T01:09:05.647Z,100786.38
2024-02-29T01:12:10.046Z,100793.03
2024-02-29T01:15:14.058Z,100790.53
2024-02-29T01:18:16.928Z,100779.50
2024-02-29T01:21:19.612Z,100788.06
2024-02-29T01:24:22.247Z,100788.06
2024-02-29T01:27:24.807Z,100783.84
2024-02-29T01:30:28.374Z,100783.00
2024-02-29T01:33:31.078Z,100791.66
2024-02-29T01:36:33.849Z,100782.47
2024-02-29T01:39:36.854Z,100794.22
2024-02-29T01:42:43.102Z,100795.81
2024-02-29T01:45:46.869Z,100792.56
2024-02-29T01:48:49.915Z,100789.16
2024-02-29T01:51:53.094Z,100771.53
2024-02-29T01:54:55.895Z,100786.78
2024-02-29T01:57:58.614Z,100781.63
2024-02-29T02:01:01.968Z,100784.19
2024-02-29T02:04:05.034Z,100777.31
2024-02-29T02:07:09.803Z,100787.47
2024-02-29T02:10:13.333Z,100771.34
2024-02-29T02:13:16.234Z,100773.09
2024-02-29T02:16:19.083Z,100780.63
2024-02-29T02:19:21.666Z,100773.94
2024-02-29T02:22:24.288Z,100779.06
2024-02-29T02:25:26.852Z,100767.34
2024-02-29T02:28:30.750Z,100775.03
2024-02-29T02:31:33.612Z,100776.81
2024-02-29T02:34:36.281Z,100762.53
2024-02-29T02:37:39.779Z,100774.44
2024-02-29T02:40:42.385Z,100766.88
2024-02-29T02:43:52.104Z,100776.34
2024-02-29T02:46:55.759Z,100777.34
2024-02-29T02:49:58.511Z,100781.78
2024-02-29T02:53:01.162Z,100782.78
2024-02-29T02:56:05.125Z,100772.75
2024-02-29T02:59:07.639Z,100761.97
2024-02-29T03:02:10.495Z,100770.44
2024-02-29T03:05:14.040Z,100789.16
2024-02-29T03:08:16.557Z,100786.53
2024-02-29T03:11:19.465Z,100778.78
2024-02-29T03:14:22.053Z,100774.63
2024-02-29T03:17:24.670Z,100778.91
2024-02-29T03:20:27.966Z,100783.91
2024-02-29T03:23:30.676Z,100779.59
2024-02-29T03:26:33.238Z,100766.94
2024-02-29T03:29:35.777Z,100793.31
2024-02-29T03:32:38.385Z,100781.53
2024-02-29T03:35:41.013Z,100783.19
2024-02-29T03:38:43.595Z,100778.78
2024-02-29T03:41:46.097Z,100784.66
2024-02-29T03:44:48.655Z,100788.00
2024-02-29T03:47:51.351Z,100793.97
2024-02-29T03:50:54.407Z,100793.00
2024-02-29T03:53:56.998Z,100787.44
2024-02-29T03:57:00.047Z,100801.78
2024-02-29T04:00:12.128Z,100737.78
2024-02-29T04:03:15.596Z,100796.16
2024-02-29T04:06:18.318Z,100791.06
2024-02-29T04:09:21.029Z,100793.59
2024-02-29T04:12:24.015Z,100800.34
2024-02-29T04:15:26.574Z,100801.91
2024-02-29T04:18:29.393Z,100775.97
2024-02-29T04:21:33.619Z,100804.16
2024-02-29T04:24:36.410Z,100810.94
2024-02-29T04:27:39.254Z,100800.69
2024-02-29T04:30:45.025Z,100799.03
2024-02-29T04:33:51.638Z,100791.56
2024-02-29T04:36:54.681Z,100799.19
2024-02-29T04:39:57.414Z,100824.59
2024-02-29T04:43:00.028Z,100814.50
2024-02-29T04:46:03.899Z,100816.41
2024-02-29T04:49:06.609Z,100827.47
2024-02-29T04:52:09.439Z,100822.31
2024-02-29T04:55:12.228Z,100824.84
2024-02-29T04:58:14.856Z,100821.44
2024-02-29T05:01:18.317Z,100823.13
2024-02-29T05:04:20.980Z,100835.38
2024-02-29T05:07:23.733Z,100826.84
2024-02-29T05:10:26.482Z,100838.66
2024-02-29T05:13:29.136Z,100830.09
2024-02-29T05:16:31.991Z,100831.91
2024-02-29T05:19:36.289Z,100831.13
2024-02-29T05:22:39.989Z,100837.88
2024-02-29T05:25:42.574Z,100850.56
2024-02-29T05:28:45.080Z,100815.16
2024-02-29T05:31:54.251Z,100851.31
2024-02-29T05:34:57.005Z,100842.88
2024-02-29T05:37:59.922Z,100843.81
2024-02-29T05:41:04.584Z,100851.31
2024-02-29T05:44:08.154Z,100849.50
2024-02-29T05:47:10.796Z,100814.88
2024-02-29T05:50:13.423Z,100853.66
2024-02-29T05:53:16.093Z,100844.56
2024-02-29T05:56:18.799Z,100835.25
2024-02-29T05:59:21.817Z,100854.66
2024-02-29T06:02:24.440Z,100863.88
2024-02-29T06:05:29.267Z,100846.97
2024-02-29T06:08:32.224Z,100851.06
2024-02-29T06:11:34.958Z,100861.84
2024-02-29T06:14:37.523Z,100870.22
2024-02-29T06:17:42.883Z,100870.78
2024-02-29T06:20:45.856Z,100859.56
2024-02-29T06:23:49.183Z,100839.13
2024-02-29T06:26:54.800Z,100868.63
2024-02-29T06:29:58.820Z,100869.31
2024-02-29T06:33:02.440Z,100864.69
2024-02-29T06:36:08.172Z,100859.00
2024-02-29T06:39:12.559Z,100857.19
2024-02-29T06:42:16.187Z,100866.91
2024-02-29T06:45:19.196Z,100865.81
2024-02-29T06:48:28.254Z,100862.06
2024-02-29T06:51:31.193Z,100854.19
2024-02-29T06:54:33.808Z,100851.69
2024-02-29T06:57:37.467Z,100866.41
2024-02-29T07:00:40.771Z,100873.63
2024-02-29T07:03:43.514Z,100877.47
2024-02-29T07:06:46.476Z,100873.94
2024-02-29T07:09:51.156Z,100866.72
2024-02-29T07:12:53.968Z,100836.63
2024-02-29T07:16:00.488Z,100873.19
2024-02-29T07:19:03.765Z,100831.97
2024-02-29T07:22:07.040Z,100867.66
2024-02-29T07:25:10.196Z,100877.13
2024-02-29T07:28:15.984Z,100863.78
2024-02-29T07:31:22.330Z,100871.25
2024-02-29T07:34:25.721Z,100874.78
2024-02-29T07:37:29.721Z,100879.22
2024-02-29T07:40:32.737Z,100881.69
2024-02-29T07:43:35.317Z,100851.19
2024-02-29T07:46:38.192Z,100854.56
2024-02-29T07:49:40.964Z,100854.53
2024-02-29T07:52:43.546Z,100849.34
2024-02-29T07:55:46.655Z,100846.97
2024-02-29T07:58:49.377Z,100842.69
2024-02-29T08:01:52.064Z,100836.81
2024-02-29T08:04:55.054Z,100830.09
2024-02-29T08:07:57.726Z,100828.16
2024-02-29T08:11:00.867Z,100827.44
2024-02-29T08:14:03.584Z,100829.88
2024-02-29T08:17:07.297Z,100819.84
2024-02-29T08:20:11.733Z,100831.81
2024-02-29T08:23:16.883Z,100821.53
2024-02-29T08:26:19.972Z,100816.66
2024-02-29T08:29:22.641Z,100807.22
2024-02-29T08:32:25.347Z,100801.56
2024-02-29T08:35:28.592Z,100804.13
2024-02-29T08:38:32.103Z,100806.50
2024-02-29T08:41:34.836Z,100806.00
2024-02-29T08:44:37.753Z,100809.69
2024-02-29T08:47:41.653Z,100804.44
2024-02-29T08:50:46.651Z,100809.47
2024-02-29T08:53:49.340Z,100803.88
2024-02-29T08:56:53.721Z,100812.81
2024-02-29T08:59:56.386Z,100802.53
2024-02-29T09:02:59.096Z,100801.59
2024-02-29T09:06:01.941Z,100805.88
2024-02-29T09:09:04.966Z,100813.66
2024-02-29T09:12:09.703Z,100805.53
2024-02-29T09:15:15.043Z,100805.63
2024-02-29T09:18:17.652Z,100806.56
2024-02-29T09:21:20.404Z,100803.44
2024-02-29T09:24:23.204Z,100804.69
2024-02-29T09:27:26.839Z,100800.59
2024-02-29T09:30:29.525Z,100798.66
2024-02-29T09:33:32.327Z,100794.22
2024-02-29T09:36:36.045Z,100804.78
2024-02-29T09:39:39.017Z,100804.66
2024-02-29T09:42:41.756Z,100798.34
2024-02-29T09:45:44.860Z,100794.19
2024-02-29T09:48:49.367Z,100792.69
2024-02-29T09:51:55.198Z,100801.41
2024-02-29T09:55:05.307Z,100796.84
2024-02-29T09:58:09.764Z,100782.81
2024-02-29T10:01:13.231Z,100806.16
2024-02-29T10:04:16.187Z,100795.81
2024-02-29T10:07:18.979Z,100788.03
2024-02-29T10:10:22.880Z,100795.13
2024-02-29T10:13:25.791Z,100787.31
2024-02-29T10:16:29.191Z,100784.28
2024-02-29T10:19:34.697Z,100775.50
2024-02-29T10:22:40.200Z,100784.78
2024-02-29T10:25:43.314Z,100755.44
2024-02-29T10:28:46.429Z,100778.47
2024-02-29T10:31:49.384Z,100779.75
2024-02-29T10:34:52.127Z,100779.19
2024-02-29T10:37:56.711Z,100762.84
2024-02-29T10:41:04.418Z,100760.72
2024-02-29T10:44:10.601Z,100754.66
2024-02-29T10:47:16.927Z,100732.75
2024-02-29T10:50:27.085Z,100740.66
2024-02-29T10:53:40.067Z,100740.47
2024-02-29T10:56:45.974Z,100730.91
2024-02-29T10:59:59.538Z,100727.59
2024-02-29T11:03:02.526Z,100728.31
2024-02-29T11:06:11.298Z,100721.44
2024-02-29T11:09:19.466Z,100741.09
2024-02-29T11:12:30.474Z,100675.09
2024-02-29T11:15:34.641Z,100739.66
2024-02-29T11:18:39.407Z,100710.88
2024-02-29T11:21:42.443Z,100729.56
2024-02-29T11:24:47.662Z,100690.31
2024-02-29T11:27:53.894Z,100719.63
2024-02-29T11:31:08.342Z,100699.38
2024-02-29T11:34:12.869Z,100684.22
2024-02-29T11:37:16.095Z,100708.38
2024-02-29T11:40:21.489Z,100672.78
2024-02-29T11:43:26.307Z,100702.13
2024-02-29T11:46:30.518Z,100686.31
2024-02-29T11:49:35.186Z,100664.31
2024-02-29T11:52:38.555Z,100693.25
2024-02-29T11:55:41.379Z,100693.75
2024-02-29T11:58:45.217Z,100679.63
2024-02-29T12:01:48.194Z,100693.56
2024-02-29T12:04:58.368Z,100694.53
2024-02-29T12:08:01.438Z,100681.75
2024-02-29T12:11:06.529Z,100690.00
2024-02-29T12:14:09.579Z,100679.66
2024-02-29T12:17:12.474Z,100673.94
2024-02-29T12:20:18.441Z,100665.59
2024-02-29T12:23:21.590Z,100671.56
2024-02-29T12:26:25.129Z,100659.19
2024-02-29T12:29:31.173Z,100662.38
2024-02-29T12:32:34.497Z,100648.22
2024-02-29T12:35:37.516Z,100649.38
2024-02-29T12:38:44.248Z,100661.06
2024-02-29T12:41:47.041Z,100655.00
2024-02-29T12:44:51.110Z,100651.19
2024-02-29T12:47:58.082Z,100653.47
2024-02-29T12:51:01.358Z,100625.78
2024-02-29T12:54:04.029Z,100636.59
2024-02-29T12:57:11.203Z,100637.66
2024-02-29T13:00:26.306Z,100641.09
2024-02-29T13:03:29.647Z,100611.72
2024-02-29T13:06:32.690Z,100632.97
2024-02-29T13:09:38.308Z,100633.38
2024-02-29T13:12:45.348Z,100634.81
2024-02-29T13:15:54.105Z,100618.41
2024-02-29T13:18:58.353Z,100622.06
2024-02-29T13:22:01.161Z,100620.88
2024-02-29T13:25:04.854Z,100622.66
2024-02-29T13:28:08.109Z,100611.69
2024-02-29T13:31:11.028Z,100604.81
2024-02-29T13:34:13.920Z,100615.16
2024-02-29T13:37:19.528Z,100603.63
2024-02-29T13:40:24.324Z,100604.09
2024-02-29T13:43:27.328Z,100595.06
2024-02-29T13:46:30.970Z,100605.19
2024-02-29T13:49:34.082Z,100607.31
2024-02-29T13:52:39.719Z,100591.13
2024-02-29T13:55:44.404Z,100582.69
2024-02-29T13:58:49.844Z,100597.25
2024-02-29T14:01:52.829Z,100579.06
2024-02-29T14:04:59.270Z,100588.69
2024-02-29T14:08:02.796Z,100595.16
2024-02-29T14:11:14.954Z,100538.91
2024-02-29T14:14:21.224Z,100582.56
2024-02-29T14:17:27.909Z,100580.91
2024-02-29T14:20:37.997Z,100546.16
2024-02-29T14:23:46.600Z,100540.69
2024-02-29T14:26:53.439Z,100569.94
2024-02-29T14:30:11.840Z,100572.78
2024-02-29T14:33:16.512Z,100537.94
2024-02-29T14:36:21.810Z,100558.13
2024-02-29T14:39:25.082Z,100544.84
2024-02-29T14:42:28.746Z,100510.81
2024-02-29T14:45:31.758Z,100557.44
2024-02-29T14:48:34.637Z,100518.09
2024-02-29T14:51:37.701Z,100550.31
2024-02-29T14:54:46.100Z,100500.97
2024-02-29T14:57:48.947Z,100537.84
2024-02-29T15:00:51.989Z,100529.41
2024-02-29T15:03:55.332Z,100528.31
2024-02-29T15:06:59.283Z,100510.97
2024-02-29T15:10:02.525Z,100519.50
2024-02-29T15:13:06.449Z,100543.28
2024-02-29T15:16:09.495Z,100520.63
2024-02-29T15:19:12.541Z,100527.91
2024-02-29T15:22:15.485Z,100520.69
2024-02-29T15:25:20.573Z,100537.56
2024-02-29T15:28:25.708Z,100531.84
2024-02-29T15:31:28.739Z,100519.56
2024-02-29T15:34:31.510Z,100514.72
2024-02-29T15:37:34.188Z,100507.84
2024-02-29T15:40:37.235Z,100516.75
2024-02-29T15:43:41.075Z,100508.84
2024-02-29T15:46:45.787Z,100498.09
2024-02-29T15:49:49.978Z,100507.25
2024-02-29T15:52:52.619Z,100496.94
2024-02-29T15:55:55.528Z,100495.50
2024-02-29T15:58:58.260Z,100494.56
2024-02-29T16:02:03.603Z,100489.13
2024-02-29T16:05:06.536Z,100472.44
2024-02-29T16:08:09.434Z,100498.84
2024-02-29T16:11:12.604Z,100495.94
2024-02-29T16:14:15.251Z,100491.50
2024-02-29T16:17:17.875Z,100498.66
2024-02-29T16:20:25.969Z,100434.84
2024-02-29T16:23:28.925Z,100476.66
2024-02-29T16:26:32.001Z,100498.03
2024-02-29T16:29:35.602Z,100488.56
2024-02-29T16:32:38.343Z,100495.84
2024-02-29T16:35:41.148Z,100482.34
2024-02-29T16:38:43.869Z,100475.75
2024-02-29T16:41:46.964Z,100479.00
2024-02-29T16:44:50.990Z,100465.09
2024-02-29T16:47:53.696Z,100472.13
2024-02-29T16:51:00.077Z,100469.16
2024-02-29T16:54:03.031Z,100479.06
2024-02-29T16:57:06.515Z,100478.47
2024-02-29T17:00:10.345Z,100462.94
2024-02-29T17:03:13.210Z,100462.09
2024-02-29T17:06:16.728Z,100461.69
2024-02-29T17:09:19.883Z,100470.75
2024-02-29T17:12:22.845Z,100474.56
2024-02-29T17:15:26.764Z,100462.97
2024-02-29T17:18:30.882Z,100463.41
2024-02-29T17:21:33.432Z,100459.41
2024-02-29T17:24:36.250Z,100460.25
2024-02-29T17:27:38.982Z,100451.53
2024-02-29T17:30:41.586Z,100455.38
2024-02-29T17:33:44.355Z,100452.22
2024-02-29T17:36:47.122Z,100441.00
2024-02-29T17:39:50.932Z,100447.03
2024-02-29T17:42:54.003Z,100445.75
2024-02-29T17:45:56.840Z,100444.41
2024-02-29T17:48:59.811Z,100433.88
2024-02-29T17:52:04.748Z,100438.25
2024-02-29T17:55:07.784Z,100424.81
2024-02-29T17:58:10.594Z,100421.44
2024-02-29T18:01:13.701Z,100438.56
2024-02-29T18:04:16.639Z,100437.22
2024-02-29T18:07:19.341Z,100427.25
2024-02-29T18:10:22.303Z,100429.44
2024-02-29T18:13:25.354Z,100440.47
2024-02-29T18:16:29.455Z,100440.03
2024-02-29T18:19:33.170Z,100431.19
2024-02-29T18:22:36.335Z,100425.41
2024-02-29T18:25:39.496Z,100412.19
2024-02-29T18:28:42.434Z,100415.53
2024-02-29T18:31:46.319Z,100418.47
2024-02-29T18:34:48.898Z,100409.44
2024-02-29T18:37:52.078Z,100410.63
2024-02-29T18:40:55.059Z,100413.75
2024-02-29T18:43:59.773Z,100402.97
2024-02-29T18:47:02.913Z,100404.56
2024-02-29T18:50:06.423Z,100399.41
2024-02-29T18:53:11.097Z,100395.00
2024-02-29T18:56:14.210Z,100403.88
2024-02-29T18:59:17.689Z,100406.56
2024-02-29T19:02:20.534Z,100392.16
2024-02-29T19:05:23.606Z,100415.50
2024-02-29T19:08:26.707Z,100421.72
2024-02-29T19:11:29.721Z,100408.13
2024-02-29T19:14:32.457Z,100408.06
2024-02-29T19:17:35.336Z,100412.75
2024-02-29T19:20:39.646Z,100405.16
2024-02-29T19:23:42.193Z,100397.22
2024-02-29T19:26:46.099Z,100402.38
2024-02-29T19:29:51.587Z,100401.13
2024-02-29T19:32:54.540Z,100397.16
2024-02-29T19:35:57.327Z,100384.00
2024-02-29T19:39:00.242Z,100397.13
2024-02-29T19:42:04.354Z,100395.97
2024-02-29T19:45:10.583Z,100386.00
2024-02-29T19:48:13.166Z,100396.59
2024-02-29T19:51:16.224Z,100392.56
2024-02-29T19:54:19.356Z,100384.59
2024-02-29T19:57:22.168Z,100380.84
2024-02-29T20:00:29.004Z,100394.16
2024-02-29T20:03:31.847Z,100387.09
2024-02-29T20:06:34.864Z,100388.63
2024-02-29T20:09:38.150Z,100387.72
2024-02-29T20:12:41.519Z,100386.63
2024-02-29T20:15:44.344Z,100399.41
2024-02-29T20:18:47.305Z,100388.38
2024-02-29T20:21:50.292Z,100388.16
2024-02-29T20:24:54.765Z,100383.22
2024-02-29T20:27:57.889Z,100378.28
2024-02-29T20:31:00.868Z,100384.53
2024-02-29T20:34:03.907Z,100367.88
2024-02-29T20:37:06.697Z,100362.19
2024-02-29T20:40:10.302Z,100338.03
2024-02-29T20:43:13.631Z,100350.94
2024-02-29T20:46:17.872Z,100346.69
2024-02-29T20:49:20.926Z,100324.56
2024-02-29T20:52:27.049Z,100327.97
2024-02-29T20:55:31.405Z,100330.13
2024-02-29T20:58:36.768Z,100319.16
2024-02-29T21:01:39.908Z,100326.63
2024-02-29T21:04:44.237Z,100326.25
2024-02-29T21:07:47.187Z,100309.84
2024-02-29T21:10:50.020Z,100321.16
2024-02-29T21:13:54.692Z,100308.16
2024-02-29T21:16:57.358Z,100317.78
2024-02-29T21:20:00.247Z,100301.16
2024-02-29T21:23:04.013Z,100304.69
2024-02-29T21:26:06.706Z,100303.63
2024-02-29T21:29:09.893Z,100318.47
2024-02-29T21:32:13.549Z,100338.06
2024-02-29T21:35:20.448Z,100326.63
2024-02-29T21:38:23.090Z,100330.19
2024-02-29T21:41:26.099Z,100313.47
2024-02-29T21:44:28.826Z,100300.44
2024-02-29T21:47:31.421Z,100317.41
2024-02-29T21:50:35.180Z,100310.41
2024-02-29T21:53:37.844Z,100311.56
2024-02-29T21:56:40.615Z,100309.22
2024-02-29T21:59:45.018Z,100283.22
2024-02-29T22:02:47.909Z,100299.06
2024-02-29T22:05:50.589Z,100310.75
2024-02-29T22:08:53.257Z,100309.38
2024-02-29T22:11:57.199Z,100274.88
2024-02-29T22:14:59.914Z,100263.78
2024-02-29T22:18:02.614Z,100279.41
2024-02-29T22:21:05.584Z,100278.03
2024-02-29T22:24:11.865Z,100275.19
2024-02-29T22:27:15.436Z,100280.47
2024-02-29T22:30:18.984Z,100268.63
2024-02-29T22:33:21.656Z,100269.78
2024-02-29T22:36:24.525Z,100258.72
2024-02-29T22:39:27.346Z,100253.09
2024-02-29T22:42:29.943Z,100256.91
2024-02-29T22:45:32.577Z,100260.28
2024-02-29T22:48:35.687Z,100254.06
2024-02-29T22:51:38.217Z,100245.97
2024-02-29T22:54:41.092Z,100244.84
2024-02-29T22:57:44.033Z,100243.44
2024-02-29T23:00:53.056Z,100240.09
2024-02-29T23:03:58.509Z,100240.28
2024-02-29T23:07:01.418Z,100262.69
2024-02-29T23:10:04.535Z,100261.34
2024-02-29T23:13:07.920Z,100252.50
2024-02-29T23:16:10.676Z,100264.91
2024-02-29T23:19:13.254Z,100261.84
2024-02-29T23:22:16.282Z,100255.47
2024-02-29T23:25:21.392Z,100247.13
2024-02-29T23:28:25.677Z,100253.28
2024-02-29T23:31:28.422Z,100251.16
2024-02-29T23:34:31.032Z,100234.88
2024-02-29T23:37:33.717Z,100199.81
2024-02-29T23:40:36.455Z,100199.81
2024-02-29T23:43:39.640Z,100194.34
2024-02-29T23:46:42.779Z,100190.16
2024-02-29T23:49:45.312Z,100186.69
2024-02-29T23:52:47.851Z,100181.28
2024-02-29T23:55:50.399Z,100168.88
2024-02-29T23:58:52.982Z,100168.13
